Time;durP1;ratioP1;P1;durP2;ratioP2;P2;SDS_P1;SDS_P2;PMS_P1;PMS_P2;Temp;Humidity;BMP_temperature;BMP_pressure;BME280_temperature;BME280_humidity;BME280_pressure;Samples;Min_cycle;Max_cycle;Signal;HPM_P1;HPM_P2
2023/06/26 00:00:26;;;;;;;2.93;2.40;;;;;;;;;;10378951;28;20338;-86
2023/06/26 00:05:31;;;;;;;3.42;2.35;;;;;;;;;;10373164;28;20112;-85
2023/06/26 00:10:35;;;;;;;2.53;2.10;;;;;;;;;;10380196;28;20508;-85
2023/06/26 00:15:39;;;;;;;2.70;2.33;;;;;;;;;;10372843;28;20130;-86
2023/06/26 00:20:44;;;;;;;2.97;2.50;;;;;;;;;;10402427;28;20092;-86
2023/06/26 00:25:47;;;;;;;2.95;2.55;;;;;;;;;;10396305;28;20060;-85
2023/06/26 00:30:51;;;;;;;4.70;2.92;;;;;;;;;;10368877;28;20069;-85
2023/06/26 00:35:55;;;;;;;2.40;2.13;;;;;;;;;;10369070;28;20053;-85
2023/06/26 00:40:59;;;;;;;2.80;2.40;;;;;;;;;;10363443;28;20088;-86
2023/06/26 00:46:02;;;;;;;2.72;2.45;;;;;;;;;;10386206;28;20049;-85
2023/06/26 00:51:07;;;;;;;4.20;2.58;;;;;;;;;;10377752;28;20095;-86
2023/06/26 00:56:12;;;;;;;2.90;2.30;;;;;;;;;;10373974;28;20108;-85
2023/06/26 01:01:17;;;;;;;3.42;2.42;;;;;;;;;;10372052;28;20041;-86
2023/06/26 01:06:24;;;;;;;2.80;2.50;;;;;;;;;;10349934;28;20053;-85
2023/06/26 01:11:28;;;;;;;3.00;2.40;;;;;;;;;;10354037;28;20140;-86
2023/06/26 01:16:31;;;;;;;3.42;2.90;;;;;;;;;;10354900;28;20057;-86
2023/06/26 01:21:40;;;;;;;2.38;2.00;;;;;;;;;;10369665;28;20158;-86
2023/06/26 01:26:46;;;;;;;2.63;2.30;;;;;;;;;;10355752;28;20050;-86
2023/06/26 01:31:50;;;;;;;2.97;2.13;;;;;;;;;;10377206;28;20450;-86
2023/06/26 01:36:54;;;;;;;3.00;2.53;;;;;;;;;;10359921;28;20050;-86
2023/06/26 01:41:59;;;;;;;3.55;2.55;;;;;;;;;;10361296;28;20145;-86
2023/06/26 01:47:05;;;;;;;2.93;2.50;;;;;;;;;;10377163;28;20073;-85
2023/06/26 01:52:15;;;;;;;2.83;2.35;;;;;;;;;;10383653;28;20037;-86
2023/06/26 01:57:23;;;;;;;2.55;2.35;;;;;;;;;;10350093;28;20058;-87
2023/06/26 02:02:26;;;;;;;4.47;3.17;;;;;;;;;;10379171;28;20046;-86
2023/06/26 02:07:30;;;;;;;3.42;2.80;;;;;;;;;;10370273;28;20056;-85
2023/06/26 02:12:35;;;;;;;3.03;2.50;;;;;;;;;;10374281;28;20050;-85
2023/06/26 02:17:39;;;;;;;3.33;2.73;;;;;;;;;;10376088;28;20513;-88
2023/06/26 02:22:43;;;;;;;2.20;2.00;;;;;;;;;;10389354;28;20052;-88
2023/06/26 02:27:49;;;;;;;3.50;2.40;;;;;;;;;;10351735;28;20121;-89
2023/06/26 02:32:52;;;;;;;2.97;2.28;;;;;;;;;;10380045;28;20049;-89
2023/06/26 02:37:55;;;;;;;2.75;2.28;;;;;;;;;;10369871;28;20354;-88
2023/06/26 04:14:41;;;;;;;3.67;2.45;;;;;;;;;;12397450;23;20047;-88
2023/06/26 04:19:45;;;;;;;3.30;2.50;;;;;;;;;;10282444;28;20129;-89
2023/06/26 04:24:49;;;;;;;3.50;2.30;;;;;;;;;;10282773;28;20106;-89
2023/06/26 04:29:54;;;;;;;2.83;2.30;;;;;;;;;;10292412;28;20051;-90
2023/06/26 04:34:57;;;;;;;5.50;2.47;;;;;;;;;;10278610;28;20051;-90
2023/06/26 04:40:03;;;;;;;3.33;2.45;;;;;;;;;;10306622;28;20046;-91
2023/06/26 04:45:16;;;;;;;2.50;2.17;;;;;;;;;;10275626;28;20038;-90
2023/06/26 04:50:19;;;;;;;2.75;2.20;;;;;;;;;;10295990;28;20465;-89
2023/06/26 04:55:24;;;;;;;3.60;2.25;;;;;;;;;;10298767;28;20054;-91
2023/06/26 05:00:29;;;;;;;2.72;2.28;;;;;;;;;;10279200;28;20055;-91
2023/06/26 05:05:33;;;;;;;2.50;2.10;;;;;;;;;;10293676;28;20416;-90
2023/06/26 05:10:37;;;;;;;2.97;2.22;;;;;;;;;;10277291;28;20047;-90
2023/06/26 05:15:42;;;;;;;2.90;2.55;;;;;;;;;;10274997;28;20043;-90
2023/06/26 05:20:47;;;;;;;2.70;2.05;;;;;;;;;;10280010;28;20053;-90
2023/06/26 05:25:53;;;;;;;3.72;2.17;;;;;;;;;;10261804;28;20581;-90
2023/06/26 05:30:59;;;;;;;2.10;1.77;;;;;;;;;;10288643;28;20039;-89
2023/06/26 05:36:04;;;;;;;;;;;;;;;;;;10299926;28;20076;-90
2023/06/26 05:41:08;;;;;;;5.15;2.92;;;;;;;;;;10297157;28;19921;-90
2023/06/26 05:46:14;;;;;;;7.75;3.30;;;;;;;;;;10307957;28;20422;-90
2023/06/26 05:51:21;;;;;;;6.13;2.20;;;;;;;;;;10289817;28;20046;-90
2023/06/26 05:56:25;;;;;;;5.18;2.30;;;;;;;;;;10286522;28;20712;-90
2023/06/26 06:01:30;;;;;;;6.88;3.05;;;;;;;;;;10282916;28;20441;-91
2023/06/26 06:06:33;;;;;;;7.65;4.03;;;;;;;;;;10283069;28;20050;-90
2023/06/26 06:11:37;;;;;;;5.10;2.90;;;;;;;;;;10294952;28;20573;-91
2023/06/26 06:16:42;;;;;;;3.30;2.60;;;;;;;;;;10269131;28;20057;-90
2023/06/26 06:21:46;;;;;;;3.92;3.08;;;;;;;;;;10297920;28;20038;-91
2023/06/26 06:26:49;;;;;;;4.05;2.60;;;;;;;;;;10277429;28;20051;-90
2023/06/26 06:31:54;;;;;;;4.05;2.70;;;;;;;;;;10281058;28;20042;-91
2023/06/26 06:36:58;;;;;;;3.03;2.50;;;;;;;;;;10283087;28;20515;-91
2023/06/26 06:42:02;;;;;;;2.42;2.15;;;;;;;;;;10280090;28;20180;-91
2023/06/26 06:47:07;;;;;;;3.08;2.10;;;;;;;;;;10263861;28;20052;-91
2023/06/26 06:52:11;;;;;;;3.75;2.67;;;;;;;;;;10280309;28;20549;-91
2023/06/26 06:57:14;;;;;;;5.03;3.38;;;;;;;;;;10279593;28;20090;-91
2023/06/26 07:02:19;;;;;;;3.28;2.40;;;;;;;;;;10282043;28;20051;-92
2023/06/26 07:07:23;;;;;;;2.77;2.43;;;;;;;;;;10273283;28;20046;-91
2023/06/26 07:12:27;;;;;;;3.97;3.50;;;;;;;;;;10285855;28;20054;-91
2023/06/26 07:17:32;;;;;;;4.45;3.03;;;;;;;;;;10278980;28;20054;-92
2023/06/26 07:22:36;;;;;;;2.83;2.13;;;;;;;;;;10282304;28;20066;-90
2023/06/26 07:27:42;;;;;;;3.70;2.80;;;;;;;;;;10276606;28;20678;-89
2023/06/26 07:32:47;;;;;;;3.70;2.88;;;;;;;;;;10276716;28;20502;-89
2023/06/26 07:37:51;;;;;;;3.17;2.80;;;;;;;;;;10272501;28;20078;-89
2023/06/26 07:42:58;;;;;;;4.18;2.85;;;;;;;;;;10272646;28;20039;-89
2023/06/26 07:48:03;;;;;;;3.00;2.58;;;;;;;;;;10274463;28;20470;-90
2023/06/26 07:53:06;;;;;;;3.13;2.80;;;;;;;;;;10278517;28;20524;-89
2023/06/26 07:58:10;;;;;;;2.88;2.38;;;;;;;;;;10279884;28;20109;-90
2023/06/26 08:03:15;;;;;;;2.97;2.58;;;;;;;;;;10275867;28;20051;-89
2023/06/26 08:08:23;;;;;;;2.17;1.85;;;;;;;;;;10287042;28;20483;-89
2023/06/26 08:13:27;;;;;;;2.92;2.08;;;;;;;;;;10284957;28;20133;-85
2023/06/26 08:18:32;;;;;;;3.20;2.13;;;;;;;;;;10306187;28;20056;-86
2023/06/26 08:23:35;;;;;;;2.10;1.90;;;;;;;;;;10283408;28;20128;-85
2023/06/26 08:28:38;;;;;;;2.33;1.90;;;;;;;;;;10267739;28;20142;-85
2023/06/26 08:33:43;;;;;;;3.90;2.95;;;;;;;;;;10281103;28;20109;-85
2023/06/26 08:38:47;;;;;;;3.67;2.77;;;;;;;;;;10294812;28;20506;-87
2023/06/26 08:43:52;;;;;;;2.95;2.38;;;;;;;;;;10423819;23;20117;-83
2023/06/26 08:48:58;;;;;;;3.08;2.65;;;;;;;;;;10277163;28;20043;-81
2023/06/26 08:54:03;;;;;;;4.60;2.97;;;;;;;;;;10283992;28;20077;-83
2023/06/26 08:59:07;;;;;;;3.70;2.45;;;;;;;;;;10287073;28;20049;-81
2023/06/26 09:04:12;;;;;;;2.20;1.95;;;;;;;;;;10299658;28;20478;-81
2023/06/26 09:09:15;;;;;;;5.50;3.77;;;;;;;;;;10291516;28;20077;-82
2023/06/26 09:14:19;;;;;;;3.40;2.30;;;;;;;;;;10267510;28;20062;-81
2023/06/26 09:19:24;;;;;;;1.95;1.77;;;;;;;;;;10298372;28;20054;-83
2023/06/26 09:24:27;;;;;;;2.83;2.33;;;;;;;;;;10307638;28;20057;-82
2023/06/26 09:29:31;;;;;;;1.92;1.73;;;;;;;;;;10287861;28;20070;-83
2023/06/26 09:34:36;;;;;;;3.53;2.80;;;;;;;;;;10299981;28;20057;-83
2023/06/26 09:39:40;;;;;;;;;;;;;;;;;;10283145;28;20525;-83
2023/06/26 09:44:45;;;;;;;2.53;1.90;;;;;;;;;;10312273;28;20054;-82
2023/06/26 09:49:52;;;;;;;2.85;2.03;;;;;;;;;;10277749;28;20046;-82
2023/06/26 09:55:09;;;;;;;4.82;2.90;;;;;;;;;;10282288;28;20066;-82
2023/06/26 10:00:14;;;;;;;3.55;2.65;;;;;;;;;;10294967;28;20069;-84
2023/06/26 10:05:18;;;;;;;2.78;1.98;;;;;;;;;;10290183;28;20051;-83
2023/06/26 10:10:25;;;;;;;2.13;1.85;;;;;;;;;;10296210;28;20047;-84
2023/06/26 10:15:29;;;;;;;1.80;1.52;;;;;;;;;;10278869;28;20054;-82
2023/06/26 10:20:34;;;;;;;;;;;;;;;;;;10282208;28;20061;-84
2023/06/26 10:25:38;;;;;;;;;;;;;;;;;;10302856;28;19922;-84
2023/06/26 10:30:43;;;;;;;1.70;1.47;;;;;;;;;;10278124;28;20463;-84
2023/06/26 10:35:49;;;;;;;3.58;1.98;;;;;;;;;;10280234;28;20074;-84
2023/06/26 10:40:52;;;;;;;2.63;1.80;;;;;;;;;;10289429;28;20619;-84
2023/06/26 10:45:56;;;;;;;3.60;1.85;;;;;;;;;;10291033;28;20121;-84
2023/06/26 10:51:15;;;;;;;2.42;1.60;;;;;;;;;;10274935;28;20441;-84
2023/06/26 10:56:18;;;;;;;2.22;1.60;;;;;;;;;;10274355;28;20082;-84
2023/06/26 11:01:23;;;;;;;2.58;1.85;;;;;;;;;;10294540;28;20133;-84
2023/06/26 11:06:27;;;;;;;;;;;;;;;;;;10296183;28;20054;-84
2023/06/26 11:12:04;;;;;;;3.38;1.67;;;;;;;;;;10285055;28;20008;-84
2023/06/26 11:17:08;;;;;;;2.63;1.80;;;;;;;;;;10275470;28;20057;-84
2023/06/26 11:22:14;;;;;;;5.65;2.00;;;;;;;;;;10310217;28;20137;-83
2023/06/26 11:27:18;;;;;;;1.80;1.42;;;;;;;;;;10291935;28;20047;-84
2023/06/26 11:32:21;;;;;;;3.42;2.28;;;;;;;;;;10288527;28;20732;-84
2023/06/26 11:37:26;;;;;;;2.97;1.30;;;;;;;;;;10299040;28;20105;-84
2023/06/26 11:42:30;;;;;;;1.85;1.38;;;;;;;;;;10303471;28;20138;-84
2023/06/26 11:47:34;;;;;;;1.58;0.90;;;;;;;;;;10298661;28;20149;-84
2023/06/26 11:52:42;;;;;;;2.78;1.73;;;;;;;;;;10299890;28;20058;-84
2023/06/26 11:57:50;;;;;;;2.33;1.05;;;;;;;;;;10292188;28;20078;-84
2023/06/26 12:02:54;;;;;;;2.10;1.42;;;;;;;;;;10310556;28;20053;-84
2023/06/26 12:07:59;;;;;;;2.08;1.02;;;;;;;;;;10284396;28;20055;-83
2023/06/26 12:13:03;;;;;;;2.75;1.50;;;;;;;;;;10298465;28;20515;-84
2023/06/26 12:18:09;;;;;;;1.92;1.00;;;;;;;;;;10307812;28;20055;-83
2023/06/26 12:23:15;;;;;;;2.90;1.27;;;;;;;;;;10284407;28;20085;-84
2023/06/26 12:28:19;;;;;;;3.92;0.90;;;;;;;;;;10294146;28;20099;-84
2023/06/26 12:33:22;;;;;;;1.30;0.80;;;;;;;;;;10304580;28;20058;-85
2023/06/26 12:38:34;;;;;;;2.27;1.00;;;;;;;;;;10292382;28;20110;-84
2023/06/26 12:43:40;;;;;;;10.65;1.75;;;;;;;;;;10288751;28;20066;-84
2023/06/26 12:48:46;;;;;;;1.90;0.93;;;;;;;;;;10292616;28;20544;-84
2023/06/26 12:53:51;;;;;;;3.28;1.08;;;;;;;;;;10317335;28;20083;-83
2023/06/26 12:58:54;;;;;;;1.60;0.90;;;;;;;;;;10284310;28;20061;-82
2023/06/26 13:03:57;;;;;;;2.38;1.00;;;;;;;;;;10312723;28;20101;-83
2023/06/26 13:09:04;;;;;;;2.22;0.77;;;;;;;;;;10307935;28;20046;-82
2023/06/26 13:14:07;;;;;;;2.00;0.80;;;;;;;;;;10300395;28;20034;-83
2023/06/26 13:19:13;;;;;;;2.75;1.20;;;;;;;;;;10296152;28;20509;-83
2023/06/26 13:24:18;;;;;;;1.38;0.70;;;;;;;;;;10304483;28;20658;-83
2023/06/26 13:29:22;;;;;;;2.88;0.50;;;;;;;;;;10312154;28;20062;-83
2023/06/26 13:34:28;;;;;;;2.95;0.60;;;;;;;;;;10298041;28;20073;-83
2023/06/26 13:39:33;;;;;;;2.85;0.73;;;;;;;;;;10300530;28;20050;-83
2023/06/26 13:44:36;;;;;;;1.27;0.60;;;;;;;;;;10306321;28;20471;-83
2023/06/26 13:49:43;;;;;;;0.85;0.50;;;;;;;;;;10308627;28;20054;-83
2023/06/26 13:54:48;;;;;;;1.63;0.68;;;;;;;;;;10304419;28;20054;-82
2023/06/26 13:59:51;;;;;;;1.55;0.63;;;;;;;;;;10295331;28;20395;-83
2023/06/26 14:04:55;;;;;;;1.88;0.90;;;;;;;;;;10308901;28;20552;-83
2023/06/26 14:09:59;;;;;;;1.70;0.55;;;;;;;;;;10302244;28;20074;-83
2023/06/26 14:15:03;;;;;;;1.10;0.50;;;;;;;;;;10284157;28;20042;-83
2023/06/26 14:20:09;;;;;;;1.47;0.60;;;;;;;;;;10305593;28;20057;-83
2023/06/26 14:25:15;;;;;;;1.40;0.60;;;;;;;;;;10297568;28;20101;-83
2023/06/26 14:30:18;;;;;;;1.67;0.50;;;;;;;;;;10303733;28;20089;-83
2023/06/26 14:35:22;;;;;;;2.55;0.60;;;;;;;;;;10293973;28;20411;-82
2023/06/26 14:40:26;;;;;;;4.30;0.68;;;;;;;;;;10306690;28;20531;-83
2023/06/26 14:45:30;;;;;;;;;;;;;;;;;;10302260;28;20042;-83
2023/06/26 14:50:34;;;;;;;1.27;0.90;;;;;;;;;;10281094;28;19929;-84
2023/06/26 14:55:39;;;;;;;1.25;0.68;;;;;;;;;;10293858;28;20102;-84
2023/06/26 15:00:43;;;;;;;1.45;0.73;;;;;;;;;;10260821;28;20135;-83
2023/06/26 15:05:47;;;;;;;1.15;0.60;;;;;;;;;;10269359;28;20113;-83
2023/06/26 15:10:51;;;;;;;1.58;0.80;;;;;;;;;;10287062;28;20141;-82
2023/06/26 15:15:55;;;;;;;1.65;0.90;;;;;;;;;;10289430;28;20139;-84
2023/06/26 15:20:58;;;;;;;2.78;1.05;;;;;;;;;;10272480;28;20081;-83
2023/06/26 15:26:03;;;;;;;1.42;0.65;;;;;;;;;;10302136;28;20046;-82
2023/06/26 15:31:06;;;;;;;2.42;1.00;;;;;;;;;;10291986;28;20078;-82
2023/06/26 15:36:10;;;;;;;3.40;0.90;;;;;;;;;;10269822;28;20038;-82
2023/06/26 15:41:15;;;;;;;2.92;0.90;;;;;;;;;;10280252;28;20089;-82
2023/06/26 15:46:18;;;;;;;1.75;0.90;;;;;;;;;;10302156;28;20097;-83
2023/06/26 15:51:22;;;;;;;1.83;0.90;;;;;;;;;;10302837;28;20050;-82
2023/06/26 15:56:26;;;;;;;1.00;0.65;;;;;;;;;;10290959;28;20505;-83
2023/06/26 16:01:30;;;;;;;0.50;0.47;;;;;;;;;;10279230;28;20050;-82
2023/06/26 16:06:33;;;;;;;2.95;1.00;;;;;;;;;;10287319;28;20058;-83
2023/06/26 16:11:38;;;;;;;2.08;0.75;;;;;;;;;;10283027;28;20134;-83
2023/06/26 16:16:41;;;;;;;1.63;0.95;;;;;;;;;;10308324;28;20097;-82
2023/06/26 16:21:45;;;;;;;4.13;0.90;;;;;;;;;;10285968;28;20118;-82
2023/06/26 16:26:49;;;;;;;1.50;0.80;;;;;;;;;;10290748;28;20054;-82
2023/06/26 16:31:56;;;;;;;1.57;0.60;;;;;;;;;;10298180;28;20053;-82
2023/06/26 16:37:06;;;;;;;5.80;1.20;;;;;;;;;;10288372;28;20393;-82
2023/06/26 16:42:12;;;;;;;1.40;0.70;;;;;;;;;;10296916;28;20078;-82
2023/06/26 16:47:16;;;;;;;2.05;0.60;;;;;;;;;;10281558;28;20796;-82
2023/06/26 16:52:20;;;;;;;2.55;0.65;;;;;;;;;;10288294;28;20050;-82
2023/06/26 16:57:24;;;;;;;1.02;0.55;;;;;;;;;;10275386;28;20057;-84
2023/06/26 17:02:29;;;;;;;2.60;0.60;;;;;;;;;;10268850;28;20074;-84
2023/06/26 17:07:34;;;;;;;1.80;0.73;;;;;;;;;;10288504;28;20674;-84
2023/06/26 17:12:41;;;;;;;3.27;0.67;;;;;;;;;;10276971;28;20065;-84
2023/06/26 17:17:44;;;;;;;1.88;0.70;;;;;;;;;;10289437;28;20408;-83
2023/06/26 17:22:48;;;;;;;1.10;0.60;;;;;;;;;;10282548;28;20047;-84
2023/06/26 17:27:53;;;;;;;1.75;0.70;;;;;;;;;;10262699;28;20086;-85
2023/06/26 17:32:56;;;;;;;1.60;0.50;;;;;;;;;;10286603;28;20118;-84
2023/06/26 17:37:59;;;;;;;1.13;0.40;;;;;;;;;;10283583;28;20054;-82
2023/06/26 17:43:04;;;;;;;1.00;0.63;;;;;;;;;;10281088;28;20046;-83
2023/06/26 17:48:08;;;;;;;1.60;0.63;;;;;;;;;;10286045;28;20221;-82
2023/06/26 17:53:11;;;;;;;1.58;0.70;;;;;;;;;;10298241;28;20050;-82
2023/06/26 17:58:16;;;;;;;1.70;0.50;;;;;;;;;;10284922;28;20043;-82
2023/06/26 18:03:19;;;;;;;1.07;0.47;;;;;;;;;;10282039;28;20050;-82
2023/06/26 18:08:23;;;;;;;2.47;0.45;;;;;;;;;;10306915;28;20700;-83
2023/06/26 18:13:28;;;;;;;0.57;0.50;;;;;;;;;;10292695;28;20074;-84
2023/06/26 18:18:31;;;;;;;1.03;0.70;;;;;;;;;;10294823;28;20067;-84
2023/06/26 18:23:34;;;;;;;1.50;0.60;;;;;;;;;;10288282;28;20053;-84
2023/06/26 18:28:39;;;;;;;2.22;0.60;;;;;;;;;;10276541;28;20256;-84
2023/06/26 18:33:43;;;;;;;1.75;0.50;;;;;;;;;;10285301;28;20137;-83
2023/06/26 18:38:47;;;;;;;1.45;0.60;;;;;;;;;;10288074;28;20086;-83
2023/06/26 18:43:52;;;;;;;1.30;0.60;;;;;;;;;;10279118;28;20043;-83
2023/06/26 18:49:02;;;;;;;0.93;0.60;;;;;;;;;;10278016;28;20047;-83
2023/06/26 18:54:05;;;;;;;2.60;0.50;;;;;;;;;;10295868;28;20055;-83
2023/06/26 18:59:10;;;;;;;4.30;0.60;;;;;;;;;;10297742;28;20108;-84
2023/06/26 19:04:14;;;;;;;0.77;0.55;;;;;;;;;;10269547;28;20089;-84
2023/06/26 19:09:18;;;;;;;2.00;0.52;;;;;;;;;;10277952;28;20112;-84
2023/06/26 19:14:23;;;;;;;2.17;0.60;;;;;;;;;;10285001;28;20537;-84
2023/06/26 19:19:26;;;;;;;0.87;0.50;;;;;;;;;;10297685;28;20042;-84
2023/06/26 19:24:33;;;;;;;1.58;0.40;;;;;;;;;;10298202;28;20050;-83
2023/06/26 19:29:38;;;;;;;0.98;0.57;;;;;;;;;;10273729;28;20043;-83
2023/06/26 19:34:41;;;;;;;1.52;0.50;;;;;;;;;;10292110;28;20593;-83
2023/06/26 19:39:45;;;;;;;1.40;0.63;;;;;;;;;;10298236;28;20078;-83
2023/06/26 19:44:50;;;;;;;3.08;0.95;;;;;;;;;;10298215;28;20113;-83
2023/06/26 19:49:53;;;;;;;4.27;0.80;;;;;;;;;;10298309;28;20124;-84
2023/06/26 19:54:57;;;;;;;0.90;0.65;;;;;;;;;;10281309;28;20046;-84
2023/06/26 20:00:04;;;;;;;2.13;0.55;;;;;;;;;;10311833;28;20706;-83
2023/06/26 20:05:15;;;;;;;1.42;0.50;;;;;;;;;;10311681;28;20052;-83
2023/06/26 20:10:18;;;;;;;1.00;0.60;;;;;;;;;;10298867;28;20077;-83
2023/06/26 20:15:23;;;;;;;0.73;0.38;;;;;;;;;;10285516;28;20054;-82
2023/06/26 20:20:27;;;;;;;0.70;0.40;;;;;;;;;;10289124;28;20057;-82
2023/06/26 20:25:30;;;;;;;1.90;0.63;;;;;;;;;;10282992;28;20541;-83
2023/06/26 20:30:35;;;;;;;1.63;0.63;;;;;;;;;;10306543;28;20094;-83
2023/06/26 20:35:39;;;;;;;0.80;0.40;;;;;;;;;;10298524;28;20673;-83
2023/06/26 20:40:43;;;;;;;0.73;0.45;;;;;;;;;;10283214;28;20141;-85
2023/06/26 20:58:22;;;;;;;1.00;0.50;;;;;;;;;;10190819;28;20136;-92
2023/06/26 21:04:18;;;;;;;1.23;0.55;;;;;;;;;;10219016;28;20062;-92
2023/06/26 21:09:37;;;;;;;;;;;;;;;;;;10269162;28;20057;-92
2023/06/26 21:15:24;;;;;;;2.15;0.68;;;;;;;;;;10302741;28;19926;-92
2023/06/26 21:20:51;;;;;;;2.13;0.60;;;;;;;;;;10272434;28;20054;-92
2023/06/26 21:26:21;;;;;;;1.05;0.60;;;;;;;;;;10290479;28;20050;-91
2023/06/26 21:31:52;;;;;;;1.67;0.50;;;;;;;;;;10305887;28;20046;-92
2023/06/26 21:37:00;;;;;;;0.85;0.55;;;;;;;;;;10281261;28;20043;-90
2023/06/26 21:42:11;;;;;;;1.83;0.70;;;;;;;;;;10301122;28;20046;-92
2023/06/26 21:47:24;;;;;;;1.20;0.50;;;;;;;;;;10280190;28;20062;-92
2023/06/26 21:52:45;;;;;;;1.45;0.52;;;;;;;;;;10310536;28;20062;-92
2023/06/26 21:58:00;;;;;;;2.17;0.80;;;;;;;;;;10297539;28;20446;-91
2023/06/26 22:03:08;;;;;;;2.22;0.60;;;;;;;;;;10246678;28;20580;-91
2023/06/26 22:08:16;;;;;;;1.05;0.70;;;;;;;;;;10227383;28;20512;-91
2023/06/26 22:13:33;;;;;;;0.95;0.55;;;;;;;;;;10225669;28;20078;-91
2023/06/26 22:18:40;;;;;;;1.20;0.60;;;;;;;;;;10236788;28;20051;-91
2023/06/26 22:23:52;;;;;;;1.27;0.70;;;;;;;;;;10241162;28;20055;-90
2023/06/26 22:29:13;;;;;;;1.08;0.57;;;;;;;;;;10239470;28;20047;-91
2023/06/26 22:34:36;;;;;;;1.95;0.73;;;;;;;;;;10239824;28;20062;-91
2023/06/26 22:39:56;;;;;;;1.60;0.70;;;;;;;;;;10214116;28;20050;-91
2023/06/26 22:45:18;;;;;;;0.95;0.60;;;;;;;;;;10214623;29;20138;-90
2023/06/26 22:50:37;;;;;;;0.82;0.68;;;;;;;;;;10221561;28;20051;-91
2023/06/26 22:55:48;;;;;;;1.27;0.70;;;;;;;;;;10227239;28;20110;-91
2023/06/26 23:01:18;;;;;;;2.45;0.90;;;;;;;;;;10282314;28;20673;-91
2023/06/26 23:12:01;;;;;;;1.83;1.00;;;;;;;;;;10291683;28;20059;-90
2023/06/26 23:17:47;;;;;;;0.65;0.50;;;;;;;;;;10296533;28;20046;-91
2023/06/26 23:23:53;;;;;;;;;;;;;;;;;;;;;
2023/06/26 23:34:57;;;;;;;0.90;0.68;;;;;;;;;;10221512;28;20137;-92
2023/06/26 23:40:22;;;;;;;1.83;0.70;;;;;;;;;;10324030;28;20043;-92
2023/06/26 23:45:48;;;;;;;2.55;0.57;;;;;;;;;;10252966;28;20053;-92
2023/06/26 23:51:15;;;;;;;0.75;0.60;;;;;;;;;;10298425;28;20062;-92
2023/06/26 23:57:10;;;;;;;2.17;0.90;;;;;;;;;;10294539;28;20053;-93
